Time;durP1;ratioP1;P1;durP2;ratioP2;P2;SDS_P1;SDS_P2;PMS_P1;PMS_P2;Temp;Humidity;BMP_temperature;BMP_pressure;BME280_temperature;BME280_humidity;BME280_pressure;Samples;Min_cycle;Max_cycle;Signal;HPM_P1;HPM_P2
2023/09/13 00:00:39;;;;;;;24.83;15.15;;;19.60;99.90;;;;;;2091114;28;20045;-83
2023/09/13 00:01:39;;;;;;;24.30;15.05;;;19.60;99.90;;;;;;2091425;28;20027;-83
2023/09/13 00:02:40;;;;;;;24.05;16.42;;;19.60;99.90;;;;;;2084437;28;20033;-85
2023/09/13 00:03:41;;;;;;;24.05;16.38;;;19.50;99.90;;;;;;2091129;28;20568;-82
2023/09/13 00:04:41;;;;;;;22.05;16.35;;;19.50;99.90;;;;;;2093888;28;20028;-84
2023/09/13 00:05:42;;;;;;;18.48;15.55;;;19.50;99.90;;;;;;2089406;28;20403;-83
2023/09/13 00:06:43;;;;;;;22.52;16.35;;;19.50;99.90;;;;;;2092480;28;20024;-86
2023/09/13 00:07:43;;;;;;;23.45;16.52;;;19.50;99.90;;;;;;2091696;28;20024;-84
2023/09/13 00:08:45;;;;;;;23.60;16.00;;;19.50;99.90;;;;;;2092743;28;20043;-84
2023/09/13 00:09:45;;;;;;;22.58;16.63;;;19.50;99.90;;;;;;2081288;28;20030;-82
2023/09/13 00:10:46;;;;;;;20.45;15.98;;;19.50;99.90;;;;;;2084571;28;20028;-82
2023/09/13 00:11:47;;;;;;;21.52;16.02;;;19.50;99.90;;;;;;2089061;28;20016;-81
2023/09/13 00:12:48;;;;;;;22.50;17.15;;;19.50;99.90;;;;;;2081512;28;20123;-84
2023/09/13 00:13:48;;;;;;;22.85;16.42;;;19.50;99.90;;;;;;2069619;28;20060;-83
2023/09/13 00:14:49;;;;;;;25.05;16.23;;;19.50;99.90;;;;;;2084421;28;20143;-83
2023/09/13 00:15:49;;;;;;;23.80;16.23;;;19.50;99.90;;;;;;2088108;28;20438;-79
2023/09/13 00:16:50;;;;;;;24.17;17.17;;;19.50;99.90;;;;;;2090125;28;20082;-82
2023/09/13 00:17:50;;;;;;;23.58;17.25;;;19.50;99.90;;;;;;2091610;28;20142;-82
2023/09/13 00:18:51;;;;;;;26.90;17.33;;;19.50;99.90;;;;;;2091165;28;20032;-85
2023/09/13 00:19:56;;;;;;;21.90;16.52;;;19.50;99.90;;;;;;2093293;28;20027;-82
2023/09/13 00:20:56;;;;;;;20.75;16.88;;;19.50;99.90;;;;;;2095097;28;20028;-82
2023/09/13 00:21:57;;;;;;;24.42;16.95;;;19.50;99.90;;;;;;2087383;28;20532;-83
2023/09/13 00:22:58;;;;;;;25.50;17.65;;;19.50;99.90;;;;;;2092960;28;20212;-82
2023/09/13 00:23:59;;;;;;;28.00;17.48;;;19.50;99.90;;;;;;2091840;28;20492;-82
2023/09/13 00:25:00;;;;;;;23.20;17.25;;;19.50;99.90;;;;;;2089289;28;20412;-84
2023/09/13 00:26:00;;;;;;;25.55;17.98;;;19.50;99.90;;;;;;2089057;28;20024;-82
2023/09/13 00:27:01;;;;;;;21.80;16.75;;;19.50;99.90;;;;;;2088843;28;20565;-82
2023/09/13 00:28:01;;;;;;;27.77;17.67;;;19.50;99.90;;;;;;2085233;28;20508;-82
2023/09/13 00:29:02;;;;;;;26.10;17.58;;;19.50;99.90;;;;;;2091862;28;20053;-82
2023/09/13 00:30:06;;;;;;;23.02;17.00;;;19.50;99.90;;;;;;2084674;28;20024;-81
2023/09/13 00:31:10;;;;;;;25.35;17.80;;;19.50;99.90;;;;;;2079330;28;20220;-83
2023/09/13 00:32:10;;;;;;;22.55;16.85;;;19.50;99.90;;;;;;2083043;28;20408;-82
2023/09/13 00:33:11;;;;;;;23.45;16.45;;;19.50;99.90;;;;;;2079255;28;20031;-82
2023/09/13 00:34:12;;;;;;;23.30;16.60;;;19.50;99.90;;;;;;2088222;28;20052;-82
2023/09/13 00:35:13;;;;;;;19.90;16.80;;;19.50;99.90;;;;;;2092337;28;20131;-84
2023/09/13 00:36:13;;;;;;;21.05;16.67;;;19.50;99.90;;;;;;2081350;28;20506;-83
2023/09/13 00:37:14;;;;;;;21.83;17.02;;;19.50;99.90;;;;;;2075686;28;20069;-82
2023/09/13 00:38:14;;;;;;;23.50;17.10;;;19.50;99.90;;;;;;2087815;28;20035;-81
2023/09/13 00:39:15;;;;;;;21.92;17.27;;;19.50;99.90;;;;;;2089776;28;20074;-80
2023/09/13 00:40:16;;;;;;;23.05;16.88;;;19.50;99.90;;;;;;2079721;28;20037;-82
2023/09/13 00:41:17;;;;;;;21.95;17.48;;;19.50;99.90;;;;;;2084619;28;20500;-82
2023/09/13 00:42:18;;;;;;;22.05;17.33;;;19.50;99.90;;;;;;2094224;28;20115;-81
2023/09/13 00:43:18;;;;;;;19.95;16.30;;;19.50;99.90;;;;;;2080342;28;20031;-82
2023/09/13 00:44:19;;;;;;;24.38;16.83;;;19.50;99.90;;;;;;2090437;28;20461;-82
2023/09/13 00:45:20;;;;;;;22.33;17.23;;;19.50;99.90;;;;;;2087072;28;20036;-81
2023/09/13 00:46:21;;;;;;;23.30;17.05;;;19.50;99.90;;;;;;2089940;28;20036;-81
2023/09/13 00:47:22;;;;;;;20.83;17.13;;;19.50;99.90;;;;;;2086834;28;20033;-80
2023/09/13 00:48:23;;;;;;;26.98;17.15;;;19.50;99.90;;;;;;2083401;28;20458;-80
2023/09/13 00:49:24;;;;;;;24.67;17.65;;;19.50;99.90;;;;;;2091883;28;20131;-81
2023/09/13 00:50:26;;;;;;;22.48;16.52;;;19.50;99.90;;;;;;2093790;28;20017;-81
2023/09/13 00:51:28;;;;;;;20.77;17.35;;;19.50;99.90;;;;;;2089727;28;20291;-81
2023/09/13 00:52:29;;;;;;;23.63;17.45;;;19.40;99.90;;;;;;2086579;28;20017;-81
2023/09/13 00:53:32;;;;;;;23.40;17.52;;;19.50;99.90;;;;;;2078295;28;20029;-81
2023/09/13 00:54:32;;;;;;;20.70;17.25;;;19.40;99.90;;;;;;2083047;28;20257;-81
2023/09/13 00:55:33;;;;;;;22.85;16.60;;;19.50;99.90;;;;;;2093679;28;20024;-81
2023/09/13 00:56:36;;;;;;;23.23;17.08;;;19.50;99.90;;;;;;2093133;28;20129;-80
2023/09/13 00:57:37;;;;;;;22.83;17.92;;;19.50;99.90;;;;;;2087818;28;20036;-81
2023/09/13 00:58:38;;;;;;;26.35;18.73;;;19.50;99.90;;;;;;2092859;28;20146;-79
2023/09/13 00:59:40;;;;;;;23.63;17.73;;;19.50;99.90;;;;;;2092167;28;20075;-80
2023/09/13 01:00:40;;;;;;;22.67;17.67;;;19.50;99.90;;;;;;2092829;28;20055;-79
2023/09/13 01:01:41;;;;;;;23.42;17.00;;;19.50;99.90;;;;;;2089842;28;20700;-80
2023/09/13 01:02:44;;;;;;;26.17;17.52;;;19.50;99.90;;;;;;2087659;28;20029;-83
2023/09/13 01:03:45;;;;;;;21.27;17.42;;;19.50;99.90;;;;;;2093173;28;20429;-80
2023/09/13 01:04:46;;;;;;;22.45;16.77;;;19.60;99.90;;;;;;2093972;28;20020;-80
2023/09/13 01:05:49;;;;;;;24.13;17.17;;;19.60;99.90;;;;;;2090443;28;20485;-81
2023/09/13 01:06:50;;;;;;;21.00;16.80;;;19.60;99.90;;;;;;2084616;28;20546;-81
2023/09/13 01:07:51;;;;;;;26.13;17.67;;;19.60;99.90;;;;;;2079308;28;20041;-81
2023/09/13 01:08:52;;;;;;;25.15;17.40;;;19.60;99.90;;;;;;2091023;28;20510;-79
2023/09/13 01:09:53;;;;;;;24.95;18.52;;;19.60;99.90;;;;;;2096130;28;20039;-79
2023/09/13 01:10:53;;;;;;;22.63;17.63;;;19.70;99.90;;;;;;2094629;28;20158;-81
2023/09/13 01:11:54;;;;;;;32.72;18.88;;;19.70;99.90;;;;;;2093228;28;20078;-82
2023/09/13 01:12:55;;;;;;;27.17;17.23;;;19.70;99.90;;;;;;2087685;28;20052;-83
2023/09/13 01:13:56;;;;;;;23.83;17.33;;;19.70;99.90;;;;;;2092995;28;20053;-84
2023/09/13 01:14:57;;;;;;;26.63;17.73;;;19.70;99.90;;;;;;2091024;28;20028;-81
2023/09/13 01:16:23;;;;;;;24.30;17.35;;;19.80;99.90;;;;;;2088715;28;20910;-79
2023/09/13 01:17:31;;;;;;;24.73;17.60;;;19.80;99.90;;;;;;2084911;28;20234;-79
2023/09/13 01:19:01;;;;;;;28.13;18.52;;;19.80;99.90;;;;;;2091521;28;20024;-81
2023/09/13 01:20:39;;;;;;;25.95;17.17;;;19.70;99.90;;;;;;2088473;28;20036;-81
2023/09/13 01:22:03;;;;;;;21.60;17.23;;;19.70;99.90;;;;;;2090594;28;20032;-79
2023/09/13 01:23:30;;;;;;;22.77;16.33;;;19.70;99.90;;;;;;2095134;28;20290;-80
2023/09/13 01:25:01;;;;;;;22.50;17.05;;;19.70;99.90;;;;;;2084058;28;20411;-80
2023/09/13 01:26:32;;;;;;;22.75;16.45;;;19.70;99.90;;;;;;2088848;28;20025;-80
2023/09/13 01:28:00;;;;;;;22.83;16.40;;;19.70;99.90;;;;;;2092873;28;20048;-81
2023/09/13 01:29:02;;;;;;;22.25;16.40;;;19.70;99.90;;;;;;2087260;28;20025;-82
2023/09/13 01:30:07;;;;;;;21.75;16.52;;;19.70;99.90;;;;;;2091862;28;20048;-81
2023/09/13 01:31:09;;;;;;;25.73;17.27;;;19.80;99.90;;;;;;2096950;28;20032;-80
2023/09/13 01:32:12;;;;;;;22.20;16.77;;;19.70;99.90;;;;;;2085004;28;20084;-71
2023/09/13 01:33:12;;;;;;;23.40;17.42;;;19.70;99.90;;;;;;2095192;28;20035;-80
2023/09/13 01:34:13;;;;;;;23.40;16.27;;;19.70;99.90;;;;;;2095692;28;20084;-65
2023/09/13 01:35:13;;;;;;;23.40;17.50;;;19.70;99.90;;;;;;2084961;28;20049;-82
2023/09/13 01:36:15;;;;;;;20.63;16.35;;;19.80;99.90;;;;;;2091071;28;20029;-84
2023/09/13 01:37:16;;;;;;;24.42;16.30;;;19.70;99.90;;;;;;2090013;28;20037;-84
2023/09/13 01:38:17;;;;;;;20.77;16.60;;;19.70;99.90;;;;;;2100096;28;20559;-83
2023/09/13 01:39:17;;;;;;;22.77;16.15;;;19.70;99.90;;;;;;2097029;28;20049;-84
2023/09/13 01:40:20;;;;;;;22.23;15.77;;;19.70;99.90;;;;;;2098669;28;20021;-84
2023/09/13 01:41:25;;;;;;;22.17;16.40;;;19.70;99.90;;;;;;2093335;28;20041;-84
2023/09/13 01:42:30;;;;;;;23.63;16.63;;;19.70;99.90;;;;;;2103778;28;20021;-82
2023/09/13 01:43:31;;;;;;;23.63;17.27;;;19.70;99.90;;;;;;2096949;28;20087;-85
2023/09/13 01:44:34;;;;;;;23.00;17.73;;;19.70;99.90;;;;;;2086996;28;20504;-82
2023/09/13 01:45:35;;;;;;;25.77;18.02;;;19.80;99.90;;;;;;2095324;28;20043;-84
2023/09/13 01:46:41;;;;;;;28.45;18.15;;;19.70;99.90;;;;;;2094373;28;20009;-81
2023/09/13 01:47:44;;;;;;;21.33;16.88;;;19.70;99.90;;;;;;2093615;28;20025;-82
2023/09/13 01:48:45;;;;;;;25.10;17.48;;;19.70;99.90;;;;;;2083693;28;20037;-81
2023/09/13 01:49:46;;;;;;;21.63;17.00;;;19.70;99.90;;;;;;2085811;28;20025;-82
2023/09/13 01:50:48;;;;;;;21.77;16.50;;;19.70;99.90;;;;;;2090979;28;20025;-82
2023/09/13 01:51:49;;;;;;;18.83;16.52;;;19.70;99.90;;;;;;2092588;28;20020;-83
2023/09/13 01:52:50;;;;;;;25.38;17.58;;;19.70;99.90;;;;;;2085790;28;20079;-83
2023/09/13 01:53:50;;;;;;;24.73;17.48;;;19.70;99.90;;;;;;2091152;28;20072;-82
2023/09/13 01:54:52;;;;;;;25.58;17.33;;;19.70;99.90;;;;;;2092489;28;20024;-83
2023/09/13 01:55:52;;;;;;;24.10;17.50;;;19.80;99.90;;;;;;2086972;28;20025;-83
2023/09/13 01:56:53;;;;;;;22.75;17.90;;;19.80;99.90;;;;;;2089615;28;20389;-84
2023/09/13 01:57:53;;;;;;;20.83;17.08;;;19.80;99.90;;;;;;2084001;28;20033;-84
2023/09/13 01:58:54;;;;;;;23.55;16.80;;;19.80;99.90;;;;;;2079177;28;20112;-83
2023/09/13 01:59:55;;;;;;;21.63;16.98;;;19.80;99.90;;;;;;2083391;28;20522;-83
2023/09/13 02:00:56;;;;;;;22.02;16.70;;;19.80;99.90;;;;;;2086475;28;20124;-83
2023/09/13 02:01:56;;;;;;;23.67;16.63;;;19.80;99.90;;;;;;2079435;28;20017;-84
2023/09/13 02:02:57;;;;;;;22.33;16.48;;;19.80;99.90;;;;;;2077497;28;20029;-83
2023/09/13 02:03:57;;;;;;;21.85;16.33;;;19.90;99.90;;;;;;2082165;28;20103;-84
2023/09/13 02:04:58;;;;;;;22.55;16.85;;;19.90;99.90;;;;;;2073928;28;20076;-84
2023/09/13 02:05:58;;;;;;;26.08;16.95;;;19.90;99.90;;;;;;2079646;28;20199;-83
2023/09/13 02:07:03;;;;;;;22.65;17.05;;;19.90;99.90;;;;;;2079408;28;20034;-83
2023/09/13 02:08:04;;;;;;;24.52;15.98;;;19.90;99.90;;;;;;2084256;28;20456;-82
2023/09/13 02:09:05;;;;;;;25.48;16.55;;;19.90;99.90;;;;;;2090026;28;20135;-83
2023/09/13 02:10:06;;;;;;;23.13;17.60;;;19.90;99.90;;;;;;2086625;28;20024;-84
2023/09/13 02:11:06;;;;;;;26.92;18.20;;;20.00;99.90;;;;;;2091793;28;20111;-84
2023/09/13 02:12:12;;;;;;;21.17;17.50;;;19.90;99.90;;;;;;2091924;28;20735;-82
2023/09/13 02:13:12;;;;;;;22.02;17.20;;;20.00;99.90;;;;;;2079365;28;20832;-79
2023/09/13 02:14:14;;;;;;;21.40;17.50;;;20.00;99.90;;;;;;2083561;28;20036;-79
2023/09/13 02:15:14;;;;;;;29.13;17.95;;;20.00;99.90;;;;;;2091901;28;20039;-80
2023/09/13 02:16:22;;;;;;;25.75;18.20;;;19.90;99.90;;;;;;2078895;28;20548;-81
2023/09/13 02:17:22;;;;;;;28.60;18.70;;;19.90;99.90;;;;;;2076948;28;20045;-80
2023/09/13 02:18:23;;;;;;;27.70;18.63;;;19.90;99.90;;;;;;2083720;28;20029;-80
2023/09/13 02:19:24;;;;;;;25.05;18.73;;;19.90;99.90;;;;;;2081175;28;20542;-80
2023/09/13 02:20:24;;;;;;;23.85;17.30;;;19.90;99.90;;;;;;2076971;28;20324;-79
2023/09/13 02:21:25;;;;;;;26.92;19.70;;;19.80;99.90;;;;;;2086594;28;20025;-79
2023/09/13 02:22:25;;;;;;;24.83;19.05;;;19.80;99.90;;;;;;2101669;28;20586;-79
2023/09/13 02:23:26;;;;;;;27.80;20.20;;;19.80;99.90;;;;;;2093452;28;20066;-80
2023/09/13 02:24:26;;;;;;;24.83;19.67;;;19.80;99.90;;;;;;2088455;28;20029;-80
2023/09/13 02:25:27;;;;;;;23.40;18.85;;;19.70;99.90;;;;;;2091480;28;20028;-81
2023/09/13 02:26:28;;;;;;;23.48;18.98;;;19.70;99.90;;;;;;2083870;28;20665;-80
2023/09/13 02:27:29;;;;;;;24.23;18.65;;;19.70;99.90;;;;;;2090015;28;20535;-80
2023/09/13 02:28:29;;;;;;;26.13;19.60;;;19.60;99.90;;;;;;2093851;28;20056;-80
2023/09/13 02:29:31;;;;;;;26.02;19.33;;;19.60;99.90;;;;;;2095015;28;20033;-79
2023/09/13 02:30:34;;;;;;;25.88;19.40;;;19.60;99.90;;;;;;2089418;28;20029;-80
2023/09/13 02:31:34;;;;;;;27.33;19.10;;;19.50;99.90;;;;;;2081241;28;20033;-80
2023/09/13 02:32:35;;;;;;;24.83;18.98;;;19.50;99.90;;;;;;2083223;28;20058;-80
2023/09/13 02:33:35;;;;;;;26.38;20.67;;;19.50;99.90;;;;;;2076962;28;20111;-79
2023/09/13 02:34:36;;;;;;;29.10;19.83;;;19.50;99.90;;;;;;2094785;28;20549;-80
2023/09/13 02:35:36;;;;;;;26.40;20.60;;;19.50;99.90;;;;;;2085338;28;20028;-81
2023/09/13 02:36:37;;;;;;;26.98;21.05;;;19.50;99.90;;;;;;2084259;28;20074;-80
2023/09/13 02:37:37;;;;;;;30.67;21.00;;;19.50;99.90;;;;;;2088591;28;20207;-80
2023/09/13 02:38:38;;;;;;;25.45;20.63;;;19.50;99.90;;;;;;2092455;28;20253;-80
2023/09/13 02:39:41;;;;;;;26.08;19.40;;;19.50;99.90;;;;;;2087753;28;20507;-81
2023/09/13 02:40:42;;;;;;;27.23;20.25;;;19.50;99.90;;;;;;2091738;28;20024;-80
2023/09/13 02:41:42;;;;;;;23.67;19.33;;;19.50;99.90;;;;;;2091902;28;20055;-80
2023/09/13 02:42:43;;;;;;;23.83;19.00;;;19.50;99.90;;;;;;2086980;28;20036;-80
2023/09/13 02:43:44;;;;;;;26.13;19.63;;;19.50;99.90;;;;;;2075631;28;20025;-81
2023/09/13 02:44:44;;;;;;;26.85;19.95;;;19.50;99.90;;;;;;2083605;28;20036;-78
2023/09/13 02:45:45;;;;;;;29.45;21.17;;;19.50;99.90;;;;;;2094811;28;20025;-80
2023/09/13 02:46:45;;;;;;;30.15;21.70;;;19.50;99.90;;;;;;2093305;28;20125;-84
2023/09/13 02:47:46;;;;;;;28.55;21.17;;;19.50;99.90;;;;;;2092649;28;20520;-81
2023/09/13 02:48:47;;;;;;;30.65;21.73;;;19.50;99.90;;;;;;2084860;28;20052;-83
2023/09/13 02:49:48;;;;;;;33.30;21.75;;;19.50;99.90;;;;;;2080195;28;20293;-81
2023/09/13 02:50:48;;;;;;;27.58;22.20;;;19.50;99.90;;;;;;2088096;28;20499;-82
2023/09/13 02:51:49;;;;;;;27.17;21.73;;;19.50;99.90;;;;;;2092478;28;20081;-83
2023/09/13 02:52:50;;;;;;;26.95;21.52;;;19.50;99.90;;;;;;2091949;28;20524;-82
2023/09/13 02:53:50;;;;;;;31.77;21.65;;;19.50;99.90;;;;;;2083836;28;20561;-82
2023/09/13 02:54:51;;;;;;;26.48;19.63;;;19.50;99.90;;;;;;2072732;28;21239;-81
2023/09/13 02:55:52;;;;;;;26.00;19.58;;;19.60;99.90;;;;;;2091628;28;20025;-81
2023/09/13 02:56:53;;;;;;;23.27;19.27;;;19.60;99.90;;;;;;2082776;28;20021;-79
2023/09/13 02:57:54;;;;;;;27.35;20.67;;;19.60;99.90;;;;;;2083628;28;20020;-80
2023/09/13 02:58:56;;;;;;;25.90;20.00;;;19.60;99.90;;;;;;2096640;28;20507;-83
2023/09/13 02:59:56;;;;;;;27.40;19.50;;;19.60;99.90;;;;;;2078220;28;20064;-82
2023/09/13 03:00:58;;;;;;;23.25;18.75;;;19.60;99.90;;;;;;2082592;28;20013;-79
2023/09/13 03:01:58;;;;;;;23.35;18.98;;;19.60;99.90;;;;;;2077661;28;20598;-80
2023/09/13 03:02:59;;;;;;;23.45;18.95;;;19.60;99.90;;;;;;2086362;28;20036;-80
2023/09/13 03:04:00;;;;;;;23.27;20.20;;;19.60;99.90;;;;;;2087999;28;20039;-81
2023/09/13 03:05:05;;;;;;;25.75;20.08;;;19.60;99.90;;;;;;2087246;28;20025;-79
2023/09/13 03:06:13;;;;;;;25.30;19.85;;;19.60;99.90;;;;;;2085075;28;20028;-81
2023/09/13 03:07:14;;;;;;;21.33;19.02;;;19.60;99.90;;;;;;2076436;28;20057;-81
2023/09/13 03:08:15;;;;;;;22.70;18.83;;;19.50;99.90;;;;;;2070434;28;20028;-81
2023/09/13 03:09:15;;;;;;;23.13;18.88;;;19.50;99.90;;;;;;2087286;28;20025;-81
2023/09/13 03:10:16;;;;;;;24.10;19.73;;;19.50;99.90;;;;;;2084030;28;20028;-80
2023/09/13 03:11:18;;;;;;;26.25;19.40;;;19.50;99.90;;;;;;2090814;28;20080;-80
2023/09/13 03:12:19;;;;;;;24.50;20.00;;;19.50;99.90;;;;;;2083523;28;20111;-80
2023/09/13 03:13:21;;;;;;;25.48;19.15;;;19.50;99.90;;;;;;2087944;28;20509;-80
2023/09/13 03:14:22;;;;;;;25.50;19.88;;;19.50;99.90;;;;;;2095435;28;20103;-80
2023/09/13 03:15:23;;;;;;;23.10;19.58;;;19.50;99.90;;;;;;2087509;28;20752;-80
2023/09/13 03:16:24;;;;;;;23.65;18.88;;;19.40;99.90;;;;;;2091374;28;20143;-80
2023/09/13 03:17:24;;;;;;;27.27;20.33;;;19.40;99.90;;;;;;2103733;28;20654;-80
2023/09/13 03:18:25;;;;;;;29.73;21.73;;;19.40;99.90;;;;;;2087941;28;20436;-81
2023/09/13 03:19:26;;;;;;;27.52;20.50;;;19.40;99.90;;;;;;2090766;28;20381;-80
2023/09/13 03:20:27;;;;;;;24.50;20.67;;;19.40;99.90;;;;;;2084053;28;20098;-81
2023/09/13 03:21:28;;;;;;;30.92;21.23;;;19.40;99.90;;;;;;2099503;28;20032;-81
2023/09/13 03:22:28;;;;;;;24.60;20.27;;;19.30;99.90;;;;;;2082054;28;20033;-81
2023/09/13 03:23:31;;;;;;;25.17;19.83;;;19.40;99.90;;;;;;2082489;28;20036;-80
2023/09/13 03:24:32;;;;;;;27.30;20.75;;;19.40;99.90;;;;;;2088701;28;20116;-79
2023/09/13 03:25:33;;;;;;;24.50;20.50;;;19.30;99.90;;;;;;2088287;28;20025;-79
2023/09/13 03:26:34;;;;;;;27.05;21.77;;;19.30;99.90;;;;;;2083070;28;20499;-80
2023/09/13 03:27:34;;;;;;;30.58;21.02;;;19.30;99.90;;;;;;2086342;28;20040;-80
2023/09/13 03:28:35;;;;;;;24.65;20.95;;;19.20;99.90;;;;;;2078576;28;20104;-81
2023/09/13 03:29:36;;;;;;;25.98;20.10;;;19.20;99.90;;;;;;2086933;28;20035;-80
2023/09/13 03:30:36;;;;;;;26.25;20.65;;;19.20;99.90;;;;;;2095206;28;20027;-82
2023/09/13 03:31:38;;;;;;;24.67;20.63;;;19.20;99.90;;;;;;2087025;28;20056;-81
2023/09/13 03:32:42;;;;;;;28.23;20.23;;;19.10;99.90;;;;;;2084788;28;20063;-80
2023/09/13 03:33:44;;;;;;;29.38;21.23;;;19.10;99.90;;;;;;2086996;28;20459;-82
2023/09/13 03:34:46;;;;;;;26.65;21.58;;;19.20;99.90;;;;;;2075472;28;20033;-80
2023/09/13 03:35:47;;;;;;;27.60;21.55;;;19.10;99.90;;;;;;2070714;28;20084;-81
2023/09/13 03:36:47;;;;;;;28.10;21.88;;;19.10;99.90;;;;;;2091162;28;20032;-81
2023/09/13 03:37:48;;;;;;;30.05;21.95;;;19.10;99.90;;;;;;2081900;28;20133;-80
2023/09/13 03:38:49;;;;;;;28.60;21.52;;;19.00;99.90;;;;;;2079561;28;20068;-80
2023/09/13 03:39:51;;;;;;;28.35;21.50;;;19.00;99.90;;;;;;2078592;28;20037;-80
2023/09/13 03:40:52;;;;;;;24.73;21.20;;;19.00;99.90;;;;;;2086750;28;20111;-78
2023/09/13 03:41:52;;;;;;;32.47;21.38;;;19.00;99.90;;;;;;2078587;28;20074;-79
2023/09/13 03:42:53;;;;;;;23.73;20.23;;;19.00;99.90;;;;;;2082279;28;20025;-80
2023/09/13 03:43:54;;;;;;;30.60;22.63;;;19.00;99.90;;;;;;2090871;28;20401;-81
2023/09/13 03:44:54;;;;;;;30.30;22.85;;;19.00;99.90;;;;;;2095440;28;20483;-82
2023/09/13 03:45:55;;;;;;;26.17;20.95;;;18.90;99.90;;;;;;2086506;28;20488;-81
2023/09/13 03:46:56;;;;;;;29.77;21.70;;;18.90;99.90;;;;;;2078951;28;20024;-81
2023/09/13 03:47:57;;;;;;;26.73;21.52;;;18.90;99.90;;;;;;2083382;28;20056;-82
2023/09/13 03:48:58;;;;;;;24.52;20.92;;;18.80;99.90;;;;;;2086884;28;20576;-81
2023/09/13 03:49:58;;;;;;;26.55;21.33;;;18.90;99.90;;;;;;2091129;28;20052;-81
2023/09/13 03:50:59;;;;;;;28.55;22.65;;;18.90;99.90;;;;;;2094984;28;20852;-82
2023/09/13 03:52:01;;;;;;;25.45;22.25;;;18.80;99.90;;;;;;2085349;28;20103;-82
2023/09/13 03:53:02;;;;;;;28.52;22.13;;;18.80;99.90;;;;;;2083870;28;20574;-81
2023/09/13 03:54:03;;;;;;;26.15;21.98;;;18.80;99.90;;;;;;2082774;28;20103;-82
2023/09/13 03:55:04;;;;;;;27.23;23.05;;;18.80;99.90;;;;;;2085621;28;20035;-82
2023/09/13 03:56:05;;;;;;;28.88;22.85;;;18.80;99.90;;;;;;2089755;28;20025;-81
2023/09/13 03:57:06;;;;;;;28.42;22.05;;;18.80;99.90;;;;;;2086536;28;20037;-84
2023/09/13 03:58:07;;;;;;;28.27;23.60;;;18.80;99.90;;;;;;2086806;28;20133;-84
2023/09/13 03:59:08;;;;;;;28.40;23.23;;;18.80;99.90;;;;;;2091582;28;20495;-82
2023/09/13 04:00:12;;;;;;;28.00;22.90;;;18.80;99.90;;;;;;2087079;28;20190;-84
2023/09/13 04:01:13;;;;;;;30.05;22.40;;;18.80;99.90;;;;;;2092747;28;20546;-82
2023/09/13 04:02:14;;;;;;;28.90;23.10;;;18.80;99.90;;;;;;2076074;28;20153;-82
2023/09/13 04:03:17;;;;;;;27.05;21.55;;;18.80;99.90;;;;;;2082680;28;20028;-80
2023/09/13 04:04:17;;;;;;;25.70;22.02;;;18.80;99.90;;;;;;2089374;28;20040;-81
2023/09/13 04:05:18;;;;;;;24.85;21.45;;;18.80;99.90;;;;;;2086058;28;20472;-81
2023/09/13 04:06:19;;;;;;;26.48;20.88;;;18.80;99.90;;;;;;2083245;28;20021;-80
2023/09/13 04:07:19;;;;;;;26.10;22.00;;;18.80;99.90;;;;;;2090828;28;20021;-81
2023/09/13 04:08:20;;;;;;;35.33;27.10;;;18.80;99.90;;;;;;2085838;28;20048;-81
2023/09/13 04:09:22;;;;;;;30.95;25.08;;;18.80;99.90;;;;;;2074937;28;20017;-81
2023/09/13 04:10:23;;;;;;;27.95;22.85;;;18.80;99.90;;;;;;2082279;28;20025;-81
2023/09/13 04:11:26;;;;;;;27.15;21.98;;;18.80;99.90;;;;;;2090738;28;20024;-80
2023/09/13 04:12:26;;;;;;;28.30;22.75;;;18.80;99.90;;;;;;2083937;28;20032;-80
2023/09/13 04:13:27;;;;;;;28.90;23.10;;;18.70;99.90;;;;;;2090127;28;20032;-80
2023/09/13 04:14:27;;;;;;;27.05;22.85;;;18.70;99.90;;;;;;2082353;28;20020;-80
2023/09/13 04:15:28;;;;;;;31.17;23.60;;;18.70;99.90;;;;;;2088305;28;20024;-81
2023/09/13 04:16:29;;;;;;;30.10;24.85;;;18.70;99.90;;;;;;2081966;28;20029;-80
2023/09/13 04:17:30;;;;;;;30.30;23.95;;;18.70;99.90;;;;;;2094104;28;20048;-81
2023/09/13 04:18:30;;;;;;;31.70;24.15;;;18.70;99.90;;;;;;2084749;28;20021;-80
2023/09/13 04:19:31;;;;;;;29.02;23.60;;;18.70;99.90;;;;;;2079054;28;20113;-80
2023/09/13 04:20:32;;;;;;;26.92;22.25;;;18.70;99.90;;;;;;2088680;28;20368;-80
2023/09/13 04:21:32;;;;;;;26.50;23.45;;;18.70;99.90;;;;;;2091234;28;20326;-81
2023/09/13 04:22:33;;;;;;;28.27;23.35;;;18.70;99.90;;;;;;2083451;28;20132;-81
2023/09/13 04:23:34;;;;;;;29.45;22.92;;;18.70;99.90;;;;;;2089350;28;20110;-82
2023/09/13 04:24:34;;;;;;;28.77;23.23;;;18.70;99.90;;;;;;2094749;28;20074;-82
2023/09/13 04:25:36;;;;;;;30.13;24.15;;;18.60;99.90;;;;;;2091337;28;20361;-83
2023/09/13 04:26:37;;;;;;;27.30;22.94;;;18.70;99.90;;;;;;2070278;28;1020184;-73
2023/09/13 04:27:38;;;;;;;30.40;23.58;;;18.60;99.90;;;;;;2078929;28;20075;-82
2023/09/13 04:28:38;;;;;;;29.13;22.63;;;18.70;99.90;;;;;;2084147;28;20555;-81
2023/09/13 04:29:41;;;;;;;27.17;23.63;;;18.70;99.90;;;;;;2085454;28;20046;-82
2023/09/13 04:30:41;;;;;;;25.65;22.40;;;18.70;99.90;;;;;;2091640;28;20111;-82
2023/09/13 04:31:42;;;;;;;32.72;23.80;;;18.70;99.90;;;;;;2084255;28;20028;-83
2023/09/13 04:32:43;;;;;;;29.27;23.73;;;18.70;99.90;;;;;;2075759;28;20393;-84
2023/09/13 04:33:54;;;;;;;29.48;24.50;;;18.70;99.90;;;;;;2075891;28;20655;-83
2023/09/13 04:35:08;;;;;;;26.73;23.73;;;18.70;99.90;;;;;;2088116;28;20036;-83
2023/09/13 04:36:08;;;;;;;29.92;24.70;;;18.70;99.90;;;;;;2084899;28;20140;-83
2023/09/13 04:37:09;;;;;;;32.50;25.17;;;18.70;99.90;;;;;;2092715;28;20503;-83
2023/09/13 04:38:10;;;;;;;31.63;25.27;;;18.70;99.90;;;;;;2089020;28;20033;-83
2023/09/13 04:39:11;;;;;;;31.95;25.10;;;18.70;99.90;;;;;;2092929;28;20494;-82
2023/09/13 04:40:13;;;;;;;30.27;24.48;;;18.70;99.90;;;;;;2088144;28;20328;-82
2023/09/13 04:41:14;;;;;;;29.45;24.17;;;18.70;99.90;;;;;;2085564;28;20032;-82
2023/09/13 04:42:17;;;;;;;26.02;23.15;;;18.70;99.90;;;;;;2093157;28;20056;-82
2023/09/13 04:43:23;;;;;;;27.67;23.48;;;18.70;99.90;;;;;;2090385;28;20102;-81
2023/09/13 04:44:24;;;;;;;29.20;23.38;;;18.70;99.90;;;;;;2093182;28;20033;-82
2023/09/13 04:45:25;;;;;;;29.48;23.60;;;18.70;99.90;;;;;;2088844;28;20491;-81
2023/09/13 04:46:26;;;;;;;29.17;24.02;;;18.70;99.90;;;;;;2096633;28;20040;-79
2023/09/13 04:47:26;;;;;;;28.38;23.58;;;18.70;99.90;;;;;;2084561;28;20024;-81
2023/09/13 04:48:27;;;;;;;31.55;24.08;;;18.60;99.90;;;;;;2088522;28;20424;-82
2023/09/13 04:49:27;;;;;;;26.35;23.48;;;18.70;99.90;;;;;;2076411;28;20033;-81
2023/09/13 04:50:28;;;;;;;28.80;22.92;;;18.70;99.90;;;;;;2080915;28;20079;-81
2023/09/13 04:51:29;;;;;;;26.02;23.10;;;18.70;99.90;;;;;;2089078;28;20024;-80
2023/09/13 04:52:29;;;;;;;30.40;23.42;;;18.70;99.90;;;;;;2088440;28;20029;-81
2023/09/13 04:53:31;;;;;;;27.45;24.23;;;18.60;99.90;;;;;;2081896;28;20281;-81
2023/09/13 04:54:31;;;;;;;29.30;23.58;;;18.70;99.90;;;;;;2088988;28;20106;-81
2023/09/13 04:55:32;;;;;;;28.23;23.58;;;18.70;99.90;;;;;;2088987;28;20028;-81
2023/09/13 04:56:32;;;;;;;28.52;24.10;;;18.70;99.90;;;;;;2082524;28;20043;-81
2023/09/13 04:57:33;;;;;;;28.83;23.88;;;18.60;99.90;;;;;;2097149;28;20036;-81
2023/09/13 04:58:34;;;;;;;32.25;25.10;;;18.70;99.90;;;;;;2092010;28;20108;-81
2023/09/13 04:59:45;;;;;;;31.33;24.88;;;18.70;99.90;;;;;;2091867;28;20017;-80
2023/09/13 05:00:46;;;;;;;29.92;23.58;;;18.70;99.90;;;;;;2098813;28;20036;-80
2023/09/13 05:01:47;;;;;;;29.40;25.02;;;18.70;99.90;;;;;;2088472;28;20031;-79
2023/09/13 05:02:47;;;;;;;30.65;25.15;;;18.70;99.90;;;;;;2087706;28;20035;-80
2023/09/13 05:03:49;;;;;;;29.98;23.77;;;18.70;99.90;;;;;;2091627;28;20064;-79
2023/09/13 05:04:50;;;;;;;28.88;22.95;;;18.60;99.90;;;;;;2097419;28;20052;-80
2023/09/13 05:05:50;;;;;;;27.17;23.60;;;18.60;99.90;;;;;;2094847;28;20488;-80
2023/09/13 05:06:51;;;;;;;28.63;23.13;;;18.70;99.90;;;;;;2102505;28;20243;-77
2023/09/13 05:07:53;;;;;;;26.40;23.55;;;18.70;99.90;;;;;;2102979;28;20085;-78
2023/09/13 05:08:53;;;;;;;29.25;23.77;;;18.70;99.90;;;;;;2093554;28;20036;-78
2023/09/13 05:09:54;;;;;;;27.70;24.23;;;18.70;99.90;;;;;;2103799;28;20100;-80
2023/09/13 05:10:55;;;;;;;29.75;23.35;;;18.60;99.90;;;;;;2092355;28;20024;-80
2023/09/13 05:11:55;;;;;;;29.25;23.42;;;18.70;99.90;;;;;;2075931;28;20040;-80
2023/09/13 05:12:56;;;;;;;30.13;24.02;;;18.70;99.90;;;;;;2092241;28;20056;-79
2023/09/13 05:14:13;;;;;;;28.00;23.25;;;18.70;99.90;;;;;;2092822;28;20027;-79